createdAt,value
2023-05-26T00:04:47.605Z,12.98
2023-05-26T00:09:51.842Z,16.83
2023-05-26T00:14:55.890Z,12.07
2023-05-26T00:20:02.155Z,12.27
2023-05-26T00:25:06.995Z,11.37
2023-05-26T00:30:13.043Z,15.85
2023-05-26T00:35:18.572Z,22.95
2023-05-26T00:40:22.753Z,18.75
2023-05-26T00:45:27.075Z,16.58
2023-05-26T00:50:33.174Z,20.40
2023-05-26T00:55:38.086Z,20.17
2023-05-26T01:00:42.196Z,15.75
2023-05-26T01:05:48.392Z,19.80
2023-05-26T01:10:58.583Z,19.77
2023-05-26T01:16:08.938Z,18.45
2023-05-26T01:21:14.801Z,11.35
2023-05-26T01:26:40.009Z,11.05
2023-05-26T01:31:45.432Z,15.52
2023-05-26T01:36:49.564Z,19.83
2023-05-26T01:42:02.880Z,14.93
2023-05-26T01:47:09.145Z,15.13
2023-05-26T01:52:14.292Z,17.20
2023-05-26T01:57:19.447Z,20.55
2023-05-26T02:02:25.079Z,16.25
2023-05-26T02:07:30.248Z,18.80
2023-05-26T02:12:34.356Z,17.67
2023-05-26T02:17:41.748Z,15.38
2023-05-26T02:22:45.926Z,13.82
2023-05-26T02:27:50.134Z,18.38
2023-05-26T02:32:55.565Z,18.15
2023-05-26T02:37:59.631Z,15.90
2023-05-26T02:43:03.839Z,16.75
2023-05-26T02:48:09.538Z,16.77
2023-05-26T02:53:13.570Z,18.35
2023-05-26T02:58:17.668Z,17.23
2023-05-26T03:03:23.298Z,19.38
2023-05-26T03:08:27.480Z,19.20
2023-05-26T03:13:31.660Z,20.27
2023-05-26T03:18:37.460Z,18.52
2023-05-26T03:23:41.893Z,15.83
2023-05-26T03:28:45.970Z,11.88
2023-05-26T03:33:51.418Z,15.98
2023-05-26T03:38:55.791Z,15.07
2023-05-26T03:44:00.212Z,16.10
2023-05-26T03:49:06.021Z,18.95
2023-05-26T03:54:10.327Z,16.33
2023-05-26T03:59:14.680Z,12.18
2023-05-26T04:04:20.197Z,16.85
2023-05-26T04:09:25.206Z,16.80
2023-05-26T04:14:29.682Z,18.50
2023-05-26T04:19:35.073Z,13.50
2023-05-26T04:24:39.827Z,13.10
2023-05-26T04:29:45.060Z,14.77
2023-05-26T04:35:16.628Z,13.07
2023-05-26T04:40:20.688Z,15.40
2023-05-26T04:45:24.834Z,15.23
2023-05-26T04:50:33.741Z,23.25
2023-05-26T04:55:38.084Z,17.15
2023-05-26T05:00:45.986Z,17.25
2023-05-26T05:06:20.596Z,19.85
2023-05-26T05:11:24.912Z,17.23
2023-05-26T05:16:29.346Z,19.58
2023-05-26T05:21:34.726Z,14.90
2023-05-26T05:26:39.317Z,17.27
2023-05-26T05:31:43.532Z,18.30
2023-05-26T05:36:49.041Z,21.15
2023-05-26T05:41:56.679Z,16.58
2023-05-26T05:47:00.928Z,14.90
2023-05-26T05:52:16.134Z,14.68
2023-05-26T05:57:20.263Z,16.58
2023-05-26T06:02:24.527Z,15.05
2023-05-26T06:07:30.874Z,17.08
2023-05-26T06:12:37.598Z,19.50
2023-05-26T06:17:41.696Z,17.20
2023-05-26T06:22:47.651Z,22.73
2023-05-26T06:27:52.246Z,23.17
2023-05-26T06:32:56.750Z,24.52
2023-05-26T06:38:02.534Z,18.13
2023-05-26T06:43:06.862Z,18.48
2023-05-26T06:48:11.532Z,17.05
2023-05-26T06:53:25.186Z,17.60
2023-05-26T06:58:30.181Z,13.15
2023-05-26T07:03:35.269Z,18.13
2023-05-26T07:08:41.797Z,17.73
2023-05-26T07:13:59.123Z,18.70
2023-05-26T07:19:03.817Z,15.77
2023-05-26T07:24:09.685Z,15.38
2023-05-26T07:29:16.116Z,23.35
2023-05-26T07:34:20.401Z,15.20
2023-05-26T07:39:28.525Z,22.92
2023-05-26T07:44:33.326Z,14.85
2023-05-26T07:49:37.535Z,16.48
2023-05-26T07:54:43.101Z,14.57
2023-05-26T07:59:47.145Z,17.27
2023-05-26T08:04:51.222Z,16.90
2023-05-26T08:09:57.259Z,17.10
2023-05-26T08:15:01.474Z,20.80
2023-05-26T08:20:06.881Z,13.63
2023-05-26T08:25:13.880Z,15.57
2023-05-26T08:30:18.241Z,11.52
2023-05-26T08:35:22.275Z,16.33
2023-05-26T08:40:27.824Z,13.85
2023-05-26T08:45:32.742Z,14.50
2023-05-26T08:50:37.193Z,21.40
2023-05-26T08:55:42.649Z,17.92
2023-05-26T09:00:48.293Z,22.90
2023-05-26T09:05:52.620Z,16.80
2023-05-26T09:10:58.423Z,13.25
2023-05-26T09:16:16.653Z,10.10
2023-05-26T09:21:22.627Z,19.77
2023-05-26T09:26:33.222Z,16.83
2023-05-26T09:31:41.947Z,15.40
2023-05-26T09:36:46.142Z,11.60
2023-05-26T09:41:51.662Z,16.15
2023-05-26T09:46:55.975Z,12.95
2023-05-26T09:52:12.420Z,8.75
2023-05-26T09:57:19.124Z,14.75
2023-05-26T10:02:25.897Z,10.85
2023-05-26T10:07:30.758Z,10.73
2023-05-26T10:12:37.634Z,7.80
2023-05-26T10:22:55.277Z,10.63
2023-05-26T10:28:11.418Z,11.05
2023-05-26T10:33:16.968Z,7.70
2023-05-26T10:38:21.211Z,14.55
2023-05-26T10:43:29.034Z,14.52
2023-05-26T10:48:37.573Z,17.58
2023-05-26T10:53:44.844Z,13.65
2023-05-26T10:58:51.870Z,11.90
2023-05-26T11:04:01.397Z,16.77
2023-05-26T11:09:10.122Z,15.93
2023-05-26T11:14:15.685Z,9.23
2023-05-26T11:19:30.687Z,11.82
2023-05-26T11:24:35.153Z,14.43
2023-05-26T11:29:40.653Z,8.68
2023-05-26T11:34:44.866Z,13.55
2023-05-26T11:39:49.077Z,9.35
2023-05-26T11:44:58.117Z,7.57
2023-05-26T11:50:09.651Z,10.00
2023-05-26T11:55:13.865Z,7.10
2023-05-26T12:00:21.493Z,9.52
2023-05-26T12:05:29.545Z,8.30
2023-05-26T12:10:34.519Z,7.97
2023-05-26T12:15:40.024Z,10.82
2023-05-26T12:20:45.479Z,10.35
2023-05-26T12:25:49.832Z,11.45
2023-05-26T12:30:58.645Z,7.82
2023-05-26T12:36:03.100Z,10.35
2023-05-26T12:41:07.567Z,9.50
2023-05-26T12:46:13.336Z,10.00
2023-05-26T12:51:18.353Z,7.83
2023-05-26T12:56:25.935Z,12.88
2023-05-26T13:01:31.876Z,8.35
2023-05-26T13:06:37.651Z,7.05
2023-05-26T13:11:41.761Z,10.93
2023-05-26T13:16:47.786Z,10.55
2023-05-26T13:21:52.311Z,11.77
2023-05-26T13:26:56.619Z,8.35
2023-05-26T13:32:02.176Z,8.50
2023-05-26T13:37:06.576Z,9.68
2023-05-26T13:42:10.667Z,10.32
2023-05-26T13:47:16.250Z,9.50
2023-05-26T13:52:21.091Z,5.95
2023-05-26T13:57:25.826Z,9.82
2023-05-26T14:02:31.818Z,5.25
2023-05-26T14:07:36.417Z,11.60
2023-05-26T14:12:43.566Z,7.72
2023-05-26T14:17:56.455Z,8.18
2023-05-26T14:23:08.161Z,8.63
2023-05-26T14:28:12.392Z,5.85
2023-05-26T14:33:18.128Z,14.30
2023-05-26T14:38:22.401Z,9.00
2023-05-26T14:43:26.956Z,7.55
2023-05-26T14:48:32.438Z,10.70
2023-05-26T14:53:36.617Z,8.65
2023-05-26T14:58:41.454Z,10.75
2023-05-26T15:04:01.678Z,9.15
2023-05-26T15:09:11.158Z,7.60
2023-05-26T15:14:15.471Z,8.20
2023-05-26T15:19:21.093Z,8.73
2023-05-26T15:24:25.175Z,8.13
2023-05-26T15:29:29.291Z,9.52
2023-05-26T15:34:34.723Z,10.27
2023-05-26T15:39:38.837Z,9.63
2023-05-26T15:44:42.945Z,7.82
2023-05-26T15:49:48.477Z,8.55
2023-05-26T15:54:52.571Z,4.82
2023-05-26T15:59:56.780Z,5.80
2023-05-26T16:05:02.359Z,8.00
2023-05-26T16:10:09.034Z,9.10
2023-05-26T16:15:15.022Z,9.50
2023-05-26T16:20:22.356Z,9.20
2023-05-26T16:25:26.874Z,8.15
2023-05-26T16:30:31.037Z,5.68
2023-05-26T16:35:44.611Z,8.20
2023-05-26T16:40:48.877Z,4.40
2023-05-26T16:45:53.039Z,8.40
2023-05-26T16:50:58.644Z,8.80
2023-05-26T16:56:02.735Z,5.50
2023-05-26T17:01:07.068Z,9.68
2023-05-26T17:06:12.693Z,6.13
2023-05-26T17:11:18.223Z,5.80
2023-05-26T17:16:22.338Z,6.75
2023-05-26T17:21:27.757Z,7.45
2023-05-26T17:26:31.900Z,10.55
2023-05-26T17:31:36.265Z,7.43
2023-05-26T17:36:41.800Z,8.93
2023-05-26T17:41:46.136Z,8.23
2023-05-26T17:46:50.377Z,6.75
2023-05-26T17:51:56.501Z,8.82
2023-05-26T17:57:02.453Z,7.37
2023-05-26T18:02:07.709Z,6.00
2023-05-26T18:07:13.223Z,12.90
2023-05-26T18:12:17.334Z,7.57
2023-05-26T18:17:21.334Z,7.55
2023-05-26T18:22:27.172Z,8.07
2023-05-26T18:27:31.318Z,7.65
2023-05-26T18:32:35.368Z,7.60
2023-05-26T18:37:40.860Z,7.57
2023-05-26T18:42:45.159Z,6.47
2023-05-26T18:47:50.327Z,6.10
2023-05-26T18:52:55.893Z,11.38
2023-05-26T18:58:00.032Z,7.43
2023-05-26T19:03:04.165Z,12.13
2023-05-26T19:08:12.473Z,7.55
2023-05-26T19:13:16.549Z,8.45
2023-05-26T19:18:21.891Z,8.57
2023-05-26T19:23:31.428Z,14.75
2023-05-26T19:28:39.222Z,10.75
2023-05-26T19:33:43.801Z,12.27
2023-05-26T19:38:49.676Z,6.95
2023-05-26T19:43:54.418Z,9.68
2023-05-26T19:48:58.606Z,12.02
2023-05-26T19:54:04.647Z,9.15
2023-05-26T19:59:08.832Z,6.87
2023-05-26T20:04:12.969Z,9.05
2023-05-26T20:09:18.621Z,7.88
2023-05-26T20:14:22.875Z,12.38
2023-05-26T20:19:26.971Z,8.57
2023-05-26T20:24:32.469Z,10.20
2023-05-26T20:29:37.103Z,8.48
2023-05-26T20:34:41.396Z,11.00
2023-05-26T20:39:54.408Z,16.80
2023-05-26T20:44:58.821Z,10.10
2023-05-26T20:50:02.968Z,11.98
2023-05-26T20:55:09.905Z,10.77
2023-05-26T21:05:18.622Z,6.43
2023-05-26T21:10:24.216Z,12.93
2023-05-26T21:15:28.526Z,8.65
2023-05-26T21:20:32.674Z,8.18
2023-05-26T21:25:38.278Z,8.75
2023-05-26T21:30:42.414Z,10.63
2023-05-26T21:35:46.537Z,11.35
2023-05-26T21:40:51.949Z,11.38
2023-05-26T21:45:56.183Z,9.55
2023-05-26T21:51:00.288Z,11.45
2023-05-26T21:56:05.944Z,11.63
2023-05-26T22:01:10.115Z,14.20
2023-05-26T22:06:14.180Z,12.95
2023-05-26T22:11:20.455Z,13.00
2023-05-26T22:16:24.663Z,7.43
2023-05-26T22:21:28.801Z,8.70
2023-05-26T22:26:34.500Z,8.55
2023-05-26T22:31:38.676Z,11.20
2023-05-26T22:36:42.902Z,9.13
2023-05-26T22:41:49.710Z,9.38
2023-05-26T22:46:55.316Z,11.60
2023-05-26T22:51:59.503Z,13.40
2023-05-26T22:57:05.446Z,14.23
2023-05-26T23:02:09.563Z,9.23
2023-05-26T23:07:13.684Z,16.42
2023-05-26T23:12:19.140Z,11.88
2023-05-26T23:17:23.266Z,16.90
2023-05-26T23:22:27.582Z,10.32
2023-05-26T23:27:33.245Z,11.18
2023-05-26T23:32:37.925Z,10.82
2023-05-26T23:37:42.053Z,9.38
2023-05-26T23:42:47.513Z,12.60
2023-05-26T23:47:52.173Z,10.68
2023-05-26T23:52:56.389Z,9.80
2023-05-26T23:58:01.944Z,12.65
